Time;durP1;ratioP1;P1;durP2;ratioP2;P2;SDS_P1;SDS_P2;PMS_P1;PMS_P2;Temp;Humidity;BMP_temperature;BMP_pressure;BME280_temperature;BME280_humidity;BME280_pressure;Samples;Min_cycle;Max_cycle;Signal;HPM_P1;HPM_P2
2023/08/24 00:01:06;;;;;;;;;10.00;10.00;;;;;27.45;49.48;100954.28;5059868;28;45736;-68
2023/08/24 00:03:32;;;;;;;;;8.00;8.00;;;;;27.43;49.34;100951.78;5059456;28;45445;-68
2023/08/24 00:05:58;;;;;;;;;8.00;8.00;;;;;27.45;49.51;100960.56;5058417;28;45570;-69
2023/08/24 00:08:23;;;;;;;;;8.67;8.67;;;;;27.42;49.81;100950.13;5060019;28;45200;-69
2023/08/24 00:10:49;;;;;;;;;7.00;7.00;;;;;27.11;49.40;100899.72;5059584;28;45536;-69
2023/08/24 00:13:15;;;;;;;;;10.00;9.33;;;;;27.41;49.21;100955.81;5059714;28;45255;-68
2023/08/24 00:15:41;;;;;;;;;9.00;7.67;;;;;27.42;49.14;100938.38;5059888;28;45319;-69
2023/08/24 00:18:06;;;;;;;;;8.33;6.33;;;;;27.31;49.84;100926.47;5059386;28;45346;-68
2023/08/24 00:20:35;;;;;;;;;8.67;8.67;;;;;27.39;49.58;100938.88;5059220;28;45732;-68
2023/08/24 00:23:00;;;;;;;;;8.67;8.67;;;;;27.34;49.98;100928.72;5058283;28;46865;-69
2023/08/24 00:25:26;;;;;;;;;8.00;8.00;;;;;27.26;49.77;100924.50;5059308;28;45263;-70
2023/08/24 00:27:54;;;;;;;;;8.00;8.00;;;;;27.24;49.84;100932.13;5059667;28;45636;-68
2023/08/24 00:30:20;;;;;;;;;7.00;6.33;;;;;27.25;50.08;100938.41;5057926;28;47940;-69
2023/08/24 00:32:45;;;;;;;;;9.00;9.00;;;;;27.24;50.37;100942.22;5059130;28;45297;-68
2023/08/24 00:35:10;;;;;;;;;8.33;7.67;;;;;27.14;49.94;100937.41;5057669;28;52537;-69
2023/08/24 00:37:37;;;;;;;;;5.67;5.67;;;;;26.86;50.37;100897.38;5059625;28;45445;-68
2023/08/24 00:40:05;;;;;;;;;9.33;9.33;;;;;27.04;50.58;100942.72;5059174;28;46337;-68
2023/08/24 00:42:31;;;;;;;;;10.67;9.67;;;;;26.70;50.50;100887.28;5059411;28;45465;-69
2023/08/24 00:44:58;;;;;;;;;11.00;9.00;;;;;26.76;50.57;100899.91;5057785;28;45318;-69
2023/08/24 00:47:24;;;;;;;;;10.00;8.00;;;;;27.06;50.19;100950.66;5057605;28;45306;-69
2023/08/24 00:49:50;;;;;;;;;10.67;9.00;;;;;27.08;50.64;100948.50;5058850;28;45702;-70
2023/08/24 00:52:16;;;;;;;;;14.33;12.00;;;;;26.76;50.44;100894.47;5058872;28;45616;-69
2023/08/24 00:54:42;;;;;;;;;12.67;11.00;;;;;26.87;50.73;100917.31;5059031;28;45440;-68
2023/08/24 00:57:07;;;;;;;;;15.67;10.33;;;;;27.05;50.45;100949.84;5059245;28;45245;-68
2023/08/24 00:59:34;;;;;;;;;11.00;10.67;;;;;27.04;50.99;100947.34;5058870;28;47022;-69
2023/08/24 01:02:00;;;;;;;;;11.33;10.33;;;;;27.03;51.09;100957.44;5058560;28;45462;-70
2023/08/24 01:04:25;;;;;;;;;12.00;10.33;;;;;26.93;50.82;100941.69;5058756;28;45305;-68
2023/08/24 01:06:52;;;;;;;;;10.00;9.67;;;;;26.92;51.07;100944.66;5059176;28;45562;-68
2023/08/24 01:09:18;;;;;;;;;11.67;10.67;;;;;26.03;50.81;100800.75;5058680;28;46099;-68
2023/08/24 01:12:19;;;;;;;;;10.00;9.00;;;;;26.89;51.20;100953.34;5058974;28;45626;-68
2023/08/24 01:14:57;;;;;;;;;10.33;10.33;;;;;26.78;51.27;100949.59;5057345;28;45367;-69
2023/08/24 01:17:27;;;;;;;;;8.00;8.00;;;;;26.83;51.64;100949.72;5058536;28;45328;-68
2023/08/24 01:19:54;;;;;;;;;7.67;6.33;;;;;26.78;51.55;100949.59;5058430;28;46601;-69
2023/08/24 01:22:53;;;;;;;;;9.67;7.33;;;;;26.81;51.43;100953.72;5058688;28;45303;-69
2023/08/24 01:25:34;;;;;;;;;9.00;9.00;;;;;26.77;51.46;100937.03;5057303;28;45300;-69
2023/08/24 01:28:01;;;;;;;;;11.00;8.00;;;;;26.77;51.43;100931.56;5058975;28;45421;-69
2023/08/24 01:30:30;;;;;;;;;7.00;7.00;;;;;26.41;51.37;100872.03;5058379;28;45838;-69
2023/08/24 01:32:56;;;;;;;;;6.33;6.33;;;;;26.72;51.50;100912.41;5058409;28;45288;-69
2023/08/24 01:35:21;;;;;;;;;9.67;9.00;;;;;26.80;51.47;100925.63;5058333;28;45315;-68
2023/08/24 01:37:46;;;;;;;;;8.00;6.67;;;;;26.53;51.56;100895.44;5058489;28;45290;-68
2023/08/24 01:40:26;;;;;;;;;7.67;7.00;;;;;26.74;51.15;100931.25;5058371;28;45862;-69
2023/08/24 01:42:51;;;;;;;;;7.00;7.00;;;;;26.75;51.37;100928.28;5056772;28;46598;-69
2023/08/24 01:45:18;;;;;;;;;10.67;9.67;;;;;26.36;51.54;100865.41;5058273;28;45408;-69
2023/08/24 01:47:45;;;;;;;;;9.00;9.00;;;;;26.73;51.74;100927.69;5058203;28;45529;-69
2023/08/24 01:50:11;;;;;;;;;9.00;9.00;;;;;26.62;51.49;100914.94;5058037;28;45464;-69
2023/08/24 01:52:37;;;;;;;;;6.67;6.67;;;;;26.59;51.33;100890.91;5057885;28;45248;-69
2023/08/24 01:55:03;;;;;;;;;8.00;8.00;;;;;26.66;51.87;100902.50;5058220;28;45513;-68
2023/08/24 01:57:28;;;;;;;;;8.00;8.00;;;;;26.65;51.80;100903.56;5058262;28;45584;-70
2023/08/24 01:59:53;;;;;;;;;7.00;7.00;;;;;26.64;51.68;100893.72;5057787;28;45692;-70
2023/08/24 02:02:20;;;;;;;;;8.00;8.00;;;;;26.58;51.88;100884.63;5055607;28;45350;-69
2023/08/24 02:04:45;;;;;;;;;7.67;7.33;;;;;26.56;51.56;100883.22;5057939;28;45209;-68
2023/08/24 02:07:11;;;;;;;;;6.33;6.33;;;;;26.60;51.71;100889.81;5057865;28;45319;-68
2023/08/24 02:09:36;;;;;;;;;9.33;8.67;;;;;26.60;51.44;100889.81;5057710;28;45592;-69
2023/08/24 02:12:02;;;;;;;;;6.33;6.33;;;;;26.61;51.47;100886.84;5057974;28;45542;-68
2023/08/24 02:14:27;;;;;;;;;9.00;6.00;;;;;26.27;51.40;100831.44;5058045;28;45156;-68
2023/08/24 02:16:52;;;;;;;;;7.00;7.00;;;;;26.48;51.67;100883.63;5057816;28;45526;-69
2023/08/24 02:19:18;;;;;;;;;7.33;7.33;;;;;26.54;51.85;100879.91;5057578;28;45865;-69
2023/08/24 02:21:43;;;;;;;;;7.67;7.67;;;;;26.51;51.86;100877.66;5057650;28;45208;-69
2023/08/24 02:24:08;;;;;;;;;6.33;6.33;;;;;26.46;51.70;100874.88;5057756;28;45493;-68
2023/08/24 02:26:34;;;;;;;;;7.67;7.67;;;;;26.40;51.68;100851.28;5057825;28;45545;-70
2023/08/24 02:28:59;;;;;;;;;7.33;7.33;;;;;26.52;51.43;100879.31;5056839;28;66092;-68
2023/08/24 02:31:24;;;;;;;;;9.00;8.00;;;;;26.51;51.86;100878.50;5057355;28;45346;-69
2023/08/24 02:33:49;;;;;;;;;10.33;8.33;;;;;26.51;51.84;100874.94;5057813;28;45459;-70
2023/08/24 02:36:15;;;;;;;;;9.00;9.00;;;;;26.45;51.87;100860.41;5057066;28;49937;-68
2023/08/24 02:38:40;;;;;;;;;8.33;8.33;;;;;26.44;51.55;100863.38;5055949;28;46407;-68
2023/08/24 02:41:07;;;;;;;;;7.33;7.33;;;;;26.44;52.06;100874.28;5057511;28;45340;-68
2023/08/24 02:43:33;;;;;;;;;8.67;6.33;;;;;26.38;52.19;100867.91;5057498;28;45288;-68
2023/08/24 02:46:03;;;;;;;;;10.33;9.33;;;;;26.31;52.55;100854.41;5057337;28;45495;-69
2023/08/24 02:48:29;;;;;;;;;5.00;5.00;;;;;26.32;52.46;100858.78;5056790;28;46831;-69
2023/08/24 02:50:55;;;;;;;;;9.00;9.00;;;;;26.33;52.88;100852.25;5057270;28;45300;-70
2023/08/24 02:53:21;;;;;;;;;8.33;7.33;;;;;26.25;52.79;100830.84;5057295;28;45304;-69
2023/08/24 02:55:46;;;;;;;;;8.67;7.67;;;;;26.02;53.34;100800.97;5057551;28;45431;-69
2023/08/24 02:58:11;;;;;;;;;8.33;7.00;;;;;26.23;53.10;100840.31;5056938;28;55926;-69
2023/08/24 03:00:39;;;;;;;;;8.33;7.00;;;;;26.26;52.98;100843.41;5056854;28;46702;-69
2023/08/24 03:03:05;;;;;;;;;7.33;7.33;;;;;26.16;53.21;100815.97;5056841;28;45548;-68
2023/08/24 03:05:32;;;;;;;;;8.33;7.33;;;;;26.25;53.22;100832.75;5057090;28;45641;-69
2023/08/24 03:07:57;;;;;;;;;7.00;7.00;;;;;26.27;52.93;100834.16;5056711;28;45718;-68
2023/08/24 03:10:22;;;;;;;;;8.00;7.33;;;;;26.04;52.83;100788.78;5056776;28;45244;-69
2023/08/24 03:12:48;;;;;;;;;7.00;5.00;;;;;26.21;53.08;100820.66;5057233;28;50720;-69
2023/08/24 03:15:13;;;;;;;;;8.00;8.00;;;;;26.08;53.25;100805.47;5060419;28;47789;-68
2023/08/24 03:17:38;;;;;;;;;10.00;8.00;;;;;26.06;53.33;100813.06;5059784;28;46470;-69
2023/08/24 03:20:04;;;;;;;;;9.67;8.33;;;;;26.12;53.53;100808.53;5060435;28;45329;-69
2023/08/24 03:22:30;;;;;;;;;8.00;7.00;;;;;25.80;53.55;100762.72;5060641;28;45501;-69
2023/08/24 03:24:55;;;;;;;;;8.00;8.00;;;;;25.84;53.63;100787.59;5060709;28;45228;-69
2023/08/24 03:27:20;;;;;;;;;9.00;9.00;;;;;25.69;53.73;100761.72;5060081;28;46741;-69
2023/08/24 03:29:46;;;;;;;;;6.33;5.67;;;;;26.02;53.47;100822.78;5060389;28;45308;-68
2023/08/24 03:32:11;;;;;;;;;7.67;7.67;;;;;26.02;53.59;100818.16;5060259;28;45254;-69
2023/08/24 03:34:36;;;;;;;;;9.00;7.67;;;;;25.98;53.60;100814.28;5058563;28;45529;-68
2023/08/24 03:37:02;;;;;;;;;8.00;8.00;;;;;25.91;53.78;100790.97;5058046;28;55865;-68
2023/08/24 03:39:27;;;;;;;;;11.33;8.33;;;;;25.70;53.82;100768.81;5059870;28;45314;-68
2023/08/24 03:41:53;;;;;;;;;7.00;6.33;;;;;25.93;53.90;100806.00;5060200;28;45801;-68
2023/08/24 03:44:18;;;;;;;;;8.00;7.33;;;;;25.97;54.15;100809.06;5060072;28;45516;-68
2023/08/24 03:46:43;;;;;;;;;9.00;8.00;;;;;25.96;54.30;100812.88;5057895;28;57315;-68
2023/08/24 03:49:08;;;;;;;;;9.33;8.00;;;;;25.94;54.36;100810.38;5059568;28;52415;-69
2023/08/24 03:51:34;;;;;;;;;8.00;7.67;;;;;25.85;54.88;100811.03;5059265;28;62664;-69
2023/08/24 03:53:59;;;;;;;;;8.00;8.00;;;;;25.85;54.72;100819.19;5059830;28;45609;-68
2023/08/24 03:56:25;;;;;;;;;8.67;8.67;;;;;25.59;54.58;100772.34;5058445;28;47870;-68
2023/08/24 03:58:50;;;;;;;;;8.00;8.00;;;;;25.83;55.02;100815.88;5059579;28;45477;-68
2023/08/24 04:01:15;;;;;;;;;9.33;9.33;;;;;25.41;55.40;100748.03;5060207;28;45826;-68
2023/08/24 04:03:41;;;;;;;;;9.67;8.00;;;;;25.62;55.36;100796.38;5077740;27;45484;-68
2023/08/24 04:06:06;;;;;;;;;8.00;8.00;;;;;25.60;55.55;100809.41;5079323;27;54862;-68
2023/08/24 04:08:31;;;;;;;;;11.00;9.00;;;;;25.59;56.13;100804.19;5079158;27;60287;-68
2023/08/24 04:10:57;;;;;;;;;10.00;8.67;;;;;25.56;56.15;100815.59;5079270;28;45788;-67
2023/08/24 04:13:22;;;;;;;;;12.33;10.67;;;;;25.57;55.88;100819.97;5080389;27;45310;-68
2023/08/24 04:15:47;;;;;;;;;10.67;8.67;;;;;25.45;56.14;100809.13;5079509;27;45854;-68
2023/08/24 04:18:13;;;;;;;;;9.00;9.00;;;;;25.40;56.07;100793.47;5079135;27;45489;-68
2023/08/24 04:20:38;;;;;;;;;8.00;7.00;;;;;25.16;56.33;100751.06;5079416;27;47741;-69
2023/08/24 04:23:03;;;;;;;;;10.33;9.00;;;;;25.46;56.10;100791.72;5095437;27;45420;-68
2023/08/24 04:25:29;;;;;;;;;9.33;9.33;;;;;25.47;56.02;100794.19;5077516;27;47184;-68
2023/08/24 04:27:55;;;;;;;;;9.67;8.67;;;;;25.47;56.01;100791.47;5079524;27;45319;-69
2023/08/24 04:30:21;;;;;;;;;8.00;8.00;;;;;25.38;55.52;100773.03;5079540;27;45627;-68
2023/08/24 04:32:46;;;;;;;;;11.67;10.00;;;;;25.32;55.99;100760.38;5079265;27;45501;-68
2023/08/24 04:35:12;;;;;;;;;10.33;9.33;;;;;25.25;56.08;100743.38;5079181;27;45898;-68
2023/08/24 04:37:38;;;;;;;;;11.33;10.33;;;;;25.33;55.70;100751.16;5079456;27;45428;-68
2023/08/24 04:40:04;;;;;;;;;8.33;8.33;;;;;25.56;55.66;100777.47;5079595;27;45240;-68
2023/08/24 04:42:30;;;;;;;;;11.33;9.00;;;;;25.31;55.67;100731.53;5079582;27;45323;-68
2023/08/24 04:44:55;;;;;;;;;8.67;8.67;;;;;25.42;55.40;100744.25;5078885;28;46756;-69
2023/08/24 04:47:20;;;;;;;;;9.67;9.67;;;;;25.43;55.46;100751.38;5078793;27;45321;-69
2023/08/24 04:49:46;;;;;;;;;9.67;9.33;;;;;25.48;55.88;100768.63;5079270;27;45299;-68
2023/08/24 04:52:11;;;;;;;;;8.00;8.00;;;;;25.51;55.48;100778.19;5079473;28;45279;-68
2023/08/24 04:54:36;;;;;;;;;9.00;9.00;;;;;25.53;55.24;100767.88;5077382;27;60846;-68
2023/08/24 04:57:02;;;;;;;;;11.67;10.00;;;;;25.52;55.45;100754.53;5079100;28;47704;-68
2023/08/24 04:59:27;;;;;;;;;9.33;9.33;;;;;25.54;54.94;100753.22;5079327;27;45472;-68
2023/08/24 05:01:52;;;;;;;;;9.00;9.00;;;;;25.55;55.34;100759.47;5079286;27;45272;-68
2023/08/24 05:04:18;;;;;;;;;9.00;9.00;;;;;25.47;55.03;100761.53;5079005;27;45721;-69
2023/08/24 05:06:43;;;;;;;;;9.67;9.33;;;;;25.41;54.99;100753.47;5079053;27;45288;-68
2023/08/24 05:09:09;;;;;;;;;8.00;8.00;;;;;25.53;54.56;100767.88;5079260;27;45192;-69
2023/08/24 05:11:34;;;;;;;;;7.33;7.00;;;;;25.39;53.89;100747.47;5079335;28;45457;-68
2023/08/24 05:13:59;;;;;;;;;9.67;8.33;;;;;25.29;54.07;100744.53;5078082;28;63560;-68
2023/08/24 05:16:25;;;;;;;;;10.00;8.00;;;;;25.08;54.47;100714.19;5078490;27;45216;-69
2023/08/24 05:18:50;;;;;;;;;9.00;8.00;;;;;25.32;54.28;100750.31;5078745;27;45510;-68
2023/08/24 05:21:15;;;;;;;;;8.00;8.00;;;;;25.41;54.12;100780.69;5078825;27;45423;-67
2023/08/24 05:23:40;;;;;;;;;9.00;9.00;;;;;25.33;54.13;100757.41;5078249;27;56004;-67
2023/08/24 05:26:06;;;;;;;;;9.67;8.00;;;;;25.09;53.96;100718.56;5077742;28;67092;-68
2023/08/24 05:28:31;;;;;;;;;7.67;7.67;;;;;25.47;54.04;100774.31;5077187;28;45305;-67
2023/08/24 05:30:57;;;;;;;;;10.00;9.67;;;;;25.45;54.28;100777.28;5078776;27;45265;-68
2023/08/24 05:33:24;;;;;;;;;9.00;9.00;;;;;25.26;53.84;100758.63;5078165;27;45805;-69
2023/08/24 05:35:51;;;;;;;;;12.00;9.00;;;;;25.26;54.01;100745.84;5077437;27;45307;-69
2023/08/24 05:38:17;;;;;;;;;10.67;9.00;;;;;25.40;53.96;100779.03;5078621;27;45454;-68
2023/08/24 05:40:43;;;;;;;;;11.67;8.00;;;;;25.38;53.44;100767.56;5077268;28;45434;-68
2023/08/24 05:43:09;;;;;;;;;8.33;8.33;;;;;25.45;53.59;100782.72;5078299;27;46836;-69
2023/08/24 05:45:35;;;;;;;;;8.67;8.67;;;;;25.39;53.40;100750.19;5078171;27;45473;-68
2023/08/24 05:48:00;;;;;;;;;11.33;9.67;;;;;25.39;53.35;100745.56;5078185;27;45295;-69
2023/08/24 05:50:26;;;;;;;;;11.00;10.00;;;;;25.47;52.87;100750.63;5078705;28;45438;-68
2023/08/24 05:52:51;;;;;;;;;11.00;9.00;;;;;25.48;53.14;100752.28;5077870;28;58110;-68
2023/08/24 05:55:17;;;;;;;;;10.67;9.00;;;;;25.40;53.30;100732.78;5078547;27;45268;-68
2023/08/24 05:57:43;;;;;;;;;9.67;9.67;;;;;25.50;53.25;100735.72;5078253;27;45365;-67
2023/08/24 06:00:09;;;;;;;;;8.67;8.67;;;;;25.44;53.17;100715.75;5078346;28;45393;-69
2023/08/24 06:02:36;;;;;;;;;8.33;8.33;;;;;25.64;52.83;100728.09;5077861;27;46297;-68
2023/08/24 06:05:02;;;;;;;;;11.00;11.00;;;;;25.72;52.82;100723.09;5078086;28;45741;-68
2023/08/24 06:07:28;;;;;;;;;12.33;11.67;;;;;25.69;52.74;100709.97;5078297;27;45216;-69
2023/08/24 06:09:53;;;;;;;;;10.33;10.33;;;;;25.96;52.57;100739.31;5078395;28;45461;-68
2023/08/24 06:12:18;;;;;;;;;11.67;11.33;;;;;25.97;51.92;100730.06;5077389;27;55430;-67
2023/08/24 06:14:43;;;;;;;;;9.33;9.33;;;;;26.11;51.88;100745.03;5077741;28;52443;-70
2023/08/24 06:17:09;;;;;;;;;9.00;9.00;;;;;26.23;51.69;100748.53;5075785;28;45237;-69
2023/08/24 06:19:34;;;;;;;;;10.00;10.00;;;;;26.22;51.37;100735.09;5078395;27;45236;-68
2023/08/24 06:21:59;;;;;;;;;9.33;9.33;;;;;26.29;51.27;100738.50;5077941;27;45435;-69
2023/08/24 06:24:26;;;;;;;;;10.67;10.00;;;;;26.40;51.06;100736.78;5093017;27;45486;-68
2023/08/24 06:26:51;;;;;;;;;11.00;9.33;;;;;26.41;50.79;100747.44;5076443;28;45387;-67
2023/08/24 06:29:16;;;;;;;;;13.33;10.00;;;;;26.38;51.09;100753.41;5078196;27;45370;-68
2023/08/24 06:31:42;;;;;;;;;11.00;9.00;;;;;26.42;50.64;100754.56;5077262;27;46354;-69
2023/08/24 06:34:07;;;;;;;;;11.67;10.33;;;;;26.40;50.36;100750.44;5077682;28;45519;-69
2023/08/24 06:36:33;;;;;;;;;9.00;9.00;;;;;26.26;50.37;100723.50;5077711;27;45438;-69
2023/08/24 06:38:58;;;;;;;;;13.00;11.00;;;;;26.42;50.21;100737.38;5077913;27;45318;-68
2023/08/24 06:41:24;;;;;;;;;8.67;8.67;;;;;26.27;50.12;100697.88;5076056;28;45638;-68
2023/08/24 06:43:49;;;;;;;;;10.00;9.67;;;;;26.70;50.10;100745.47;5077284;27;45426;-70
2023/08/24 06:46:14;;;;;;;;;9.67;9.00;;;;;26.79;49.16;100754.84;5077213;27;45442;-69
2023/08/24 06:48:42;;;;;;;;;9.00;9.00;;;;;26.93;49.18;100728.88;5077483;27;45294;-67
2023/08/24 06:51:07;;;;;;;;;9.00;9.00;;;;;27.20;48.91;100739.06;5077235;28;45582;-69
2023/08/24 06:53:32;;;;;;;;;10.33;10.33;;;;;27.16;48.28;100694.25;5077095;28;45430;-68
2023/08/24 06:55:58;;;;;;;;;10.67;9.67;;;;;27.47;47.77;100715.38;5077465;27;45228;-68
2023/08/24 06:58:24;;;;;;;;;11.67;10.00;;;;;27.71;47.40;100724.13;5077095;27;45682;-70
2023/08/24 07:00:50;;;;;;;;;12.67;10.00;;;;;27.76;46.81;100715.13;5076972;27;45842;-68
2023/08/24 07:03:17;;;;;;;;;9.67;9.67;;;;;27.72;47.04;100695.72;5076684;27;45339;-68
2023/08/24 07:05:43;;;;;;;;;10.00;7.67;;;;;28.15;46.07;100746.66;5076998;27;45411;-69
2023/08/24 07:08:08;;;;;;;;;11.00;10.33;;;;;28.34;47.29;100744.38;5077227;27;45627;-68
2023/08/24 07:10:34;;;;;;;;;10.00;8.33;;;;;28.61;47.28;100749.75;5076625;28;46688;-70
2023/08/24 07:12:59;;;;;;;;;9.00;8.67;;;;;28.79;46.77;100732.91;5092622;27;45450;-69
2023/08/24 07:15:25;;;;;;;;;9.67;9.67;;;;;29.01;46.71;100716.38;5077013;27;45434;-68
2023/08/24 07:17:50;;;;;;;;;9.00;9.00;;;;;29.55;46.94;100742.63;5076635;27;45464;-69
2023/08/24 07:20:16;;;;;;;;;14.00;12.00;;;;;29.96;44.74;100730.63;5076968;27;45781;-67
2023/08/24 07:22:41;;;;;;;;;11.00;11.00;;;;;30.42;42.56;100732.56;5076862;28;45335;-69
2023/08/24 07:25:07;;;;;;;;;12.33;12.33;;;;;30.68;42.43;100712.25;5076938;27;45347;-68
2023/08/24 07:27:33;;;;;;;;;8.00;8.00;;;;;31.05;41.34;100722.03;5074728;27;45492;-69
2023/08/24 07:29:59;;;;;;;;;10.67;9.33;;;;;31.12;41.25;100673.09;5055082;28;46443;-68
2023/08/24 07:32:26;;;;;;;;;9.00;9.00;;;;;31.54;40.08;100691.03;5055897;28;45240;-70
2023/08/24 07:34:51;;;;;;;;;12.00;11.00;;;;;31.71;39.77;100713.47;5056711;28;45513;-68
2023/08/24 07:37:17;;;;;;;;;11.33;9.33;;;;;31.18;39.58;100661.00;5056317;28;45329;-69
2023/08/24 07:39:42;;;;;;;;;10.00;9.67;;;;;31.08;40.00;100705.81;5057455;28;45471;-68
2023/08/24 07:42:07;;;;;;;;;9.67;9.33;;;;;30.70;40.90;100681.78;5056327;28;45434;-69
2023/08/24 07:44:33;;;;;;;;;15.33;9.00;;;;;30.63;41.30;100689.47;5056120;28;45349;-68
2023/08/24 07:46:58;;;;;;;;;5.67;5.67;;;;;30.30;41.45;100672.53;5075116;28;45723;-68
2023/08/24 07:49:24;;;;;;;;;9.67;9.67;;;;;30.27;42.07;100697.75;5074559;27;46235;-69
2023/08/24 07:51:49;;;;;;;;;10.67;10.00;;;;;30.24;42.68;100701.06;5076428;27;45421;-71
2023/08/24 07:54:14;;;;;;;;;12.67;12.67;;;;;30.17;42.33;100679.38;5092191;27;45478;-68
2023/08/24 07:56:40;;;;;;;;;12.00;11.00;;;;;30.65;42.57;100684.56;5075932;28;56115;-69
2023/08/24 07:59:08;;;;;;;;;13.33;10.00;;;;;31.15;41.37;100684.34;5076943;28;46255;-68
2023/08/24 08:01:33;;;;;;;;;11.33;7.67;;;;;31.65;39.43;100670.63;5079420;28;45339;-70
2023/08/24 08:04:00;;;;;;;;;8.33;8.33;;;;;31.97;38.71;100653.63;5078057;27;45488;-68
2023/08/24 08:06:26;;;;;;;;;11.00;10.00;;;;;32.34;37.94;100659.34;5076577;27;45244;-69
2023/08/24 08:08:51;;;;;;;;;10.67;10.33;;;;;32.61;37.29;100660.69;5072666;28;47313;-69
2023/08/24 08:11:18;;;;;;;;;8.00;8.00;;;;;32.98;37.13;100655.31;5079718;27;45334;-70
2023/08/24 08:13:43;;;;;;;;;9.67;8.00;;;;;33.48;36.66;100669.53;5067749;27;45364;-70
2023/08/24 08:16:09;;;;;;;;;8.33;8.33;;;;;33.96;36.25;100674.03;5068714;27;45524;-70
2023/08/24 08:18:35;;;;;;;;;9.67;8.67;;;;;34.44;35.26;100680.09;5073660;27;48464;-69
2023/08/24 08:21:02;;;;;;;;;10.00;10.00;;;;;34.78;34.11;100675.00;5057344;28;45487;-68
2023/08/24 08:23:27;;;;;;;;;11.00;8.33;;;;;35.12;33.61;100672.94;5058634;28;45589;-68
2023/08/24 08:25:53;;;;;;;;;12.67;11.67;;;;;35.38;33.92;100685.09;5057558;28;45383;-68
2023/08/24 08:28:18;;;;;;;;;11.00;10.00;;;;;35.54;32.96;100697.44;5056821;28;47291;-68
2023/08/24 08:30:44;;;;;;;;;11.33;11.00;;;;;35.24;33.14;100665.78;5057196;28;45554;-69
2023/08/24 08:33:10;;;;;;;;;10.00;9.00;;;;;35.35;32.05;100675.47;5073396;27;45344;-69
2023/08/24 08:35:37;;;;;;;;;10.00;8.33;;;;;35.45;32.38;100692.97;5058545;28;45462;-68
2023/08/24 08:38:02;;;;;;;;;9.33;8.67;;;;;35.40;32.16;100684.78;5058427;28;46550;-71
2023/08/24 08:40:30;;;;;;;;;8.00;7.67;;;;;35.37;32.55;100708.34;5062563;28;45456;-68
2023/08/24 08:42:58;;;;;;;;;8.67;8.00;;;;;34.90;32.51;100709.63;5058480;28;45473;-68
2023/08/24 08:45:28;;;;;;;;;11.33;11.33;;;;;34.51;33.53;100697.09;5073102;27;46109;-70
2023/08/24 08:47:57;;;;;;;;;10.33;9.33;;;;;34.61;33.22;100712.63;5057956;28;46540;-67
2023/08/24 08:50:24;;;;;;;;;9.67;9.33;;;;;34.62;32.99;100720.59;5058466;28;45371;-68
2023/08/24 08:52:49;;;;;;;;;12.33;10.33;;;;;34.60;33.69;100719.28;5067412;28;45324;-68
2023/08/24 08:55:15;;;;;;;;;12.00;11.00;;;;;34.55;33.47;100722.97;5060228;28;47573;-68
2023/08/24 08:57:42;;;;;;;;;12.33;10.67;;;;;34.44;32.99;100703.03;5057954;28;47341;-68
2023/08/24 09:00:12;;;;;;;;;10.67;9.67;;;;;34.42;33.65;100707.19;5058042;28;45686;-68
2023/08/24 09:02:38;;;;;;;;;9.67;9.67;;;;;34.40;33.92;100715.75;5058036;28;45271;-67
2023/08/24 09:05:04;;;;;;;;;12.00;11.67;;;;;34.37;33.79;100697.06;5058015;28;45314;-67
2023/08/24 09:07:30;;;;;;;;;10.67;10.33;;;;;34.32;33.86;100677.00;5057820;28;46739;-68
2023/08/24 09:09:55;;;;;;;;;11.33;11.33;;;;;34.28;33.67;100664.94;5057185;28;45294;-68
2023/08/24 09:12:20;;;;;;;;;11.00;11.00;;;;;34.18;33.78;100658.44;5059983;28;45300;-67
2023/08/24 09:14:46;;;;;;;;;10.33;10.33;;;;;33.96;34.35;100646.44;5065653;27;45349;-69
2023/08/24 09:17:22;;;;;;;;;10.33;10.33;;;;;33.37;36.09;100673.53;5058647;28;48038;-68
2023/08/24 09:19:50;;;;;;;;;10.00;10.00;;;;;32.63;37.62;100677.72;5046412;28;45444;-67
2023/08/24 09:22:16;;;;;;;;;13.67;12.67;;;;;32.27;38.18;100683.63;5066324;28;45556;-70
2023/08/24 09:24:41;;;;;;;;;10.33;10.33;;;;;32.15;37.91;100685.91;5065784;28;45379;-69
2023/08/24 09:27:20;;;;;;;;;11.67;10.67;;;;;32.52;37.54;100703.75;5057469;28;45402;-68
2023/08/24 09:29:50;;;;;;;;;9.00;9.00;;;;;32.57;37.68;100709.19;5057475;28;45335;-68
2023/08/24 09:32:26;;;;;;;;;11.33;11.33;;;;;32.38;38.12;100709.91;5057733;28;45323;-68
2023/08/24 09:34:52;;;;;;;;;11.67;10.00;;;;;32.03;38.98;100738.53;5057360;28;45286;-69
2023/08/24 09:37:17;;;;;;;;;11.00;11.00;;;;;31.63;39.26;100728.59;5068287;28;46675;-69
2023/08/24 09:39:44;;;;;;;;;12.33;11.33;;;;;31.52;39.68;100740.78;5058036;27;45441;-70
2023/08/24 09:42:09;;;;;;;;;11.00;11.00;;;;;31.44;40.30;100733.16;5057021;28;45295;-68
2023/08/24 09:44:35;;;;;;;;;11.00;11.00;;;;;31.30;40.54;100757.66;5057175;28;45312;-68
2023/08/24 09:47:00;;;;;;;;;10.00;10.00;;;;;30.92;41.21;100734.41;5058570;28;46363;-69
2023/08/24 09:49:28;;;;;;;;;11.67;9.33;;;;;30.82;41.87;100756.41;5057329;28;45271;-69
2023/08/24 09:51:57;;;;;;;;;15.00;13.67;;;;;30.63;41.71;100758.91;5055385;28;45767;-68
2023/08/24 09:54:26;;;;;;;;;10.67;10.67;;;;;30.53;42.69;100742.44;5060286;28;46484;-69
2023/08/24 09:56:52;;;;;;;;;12.00;11.00;;;;;30.46;42.16;100745.47;5061528;27;46180;-68
2023/08/24 09:59:18;;;;;;;;;12.00;11.33;;;;;30.26;42.57;100746.31;5052629;28;45414;-70
2023/08/24 10:01:48;;;;;;;;;11.33;11.33;;;;;30.01;43.13;100735.28;5057115;28;45563;-69
2023/08/24 10:04:21;;;;;;;;;11.00;11.00;;;;;29.54;43.11;100686.19;5059024;28;45446;-68
2023/08/24 10:06:51;;;;;;;;;13.67;12.00;;;;;29.90;42.85;100777.50;5057092;28;46699;-68
2023/08/24 10:09:25;;;;;;;;;14.00;12.67;;;;;29.78;43.10;100764.03;5056416;28;45514;-68
2023/08/24 10:12:00;;;;;;;;;11.00;11.00;;;;;29.84;42.95;100756.66;5070941;27;45513;-67
2023/08/24 10:14:28;;;;;;;;;12.67;10.67;;;;;29.67;43.49;100754.16;5056735;28;45461;-70
2023/08/24 10:16:55;;;;;;;;;12.33;11.33;;;;;29.62;43.41;100748.66;5059946;28;45781;-68
2023/08/24 10:19:22;;;;;;;;;13.00;11.67;;;;;29.38;42.89;100710.75;5056455;28;45371;-68
2023/08/24 10:21:50;;;;;;;;;9.00;9.00;;;;;29.37;43.00;100703.63;5056307;28;45434;-68
2023/08/24 10:24:16;;;;;;;;;12.33;10.67;;;;;29.61;43.49;100725.09;5056706;28;45474;-68
2023/08/24 10:26:42;;;;;;;;;16.67;14.67;;;;;29.60;43.05;100696.88;5056665;28;46423;-69
2023/08/24 10:29:08;;;;;;;;;13.00;12.33;;;;;29.77;42.85;100718.53;5055891;28;45595;-69
2023/08/24 10:31:34;;;;;;;;;9.00;9.00;;;;;29.88;42.73;100739.41;5059523;28;45455;-69
2023/08/24 10:34:01;;;;;;;;;12.00;9.67;;;;;29.93;42.91;100744.88;5058443;27;45547;-69
2023/08/24 10:36:27;;;;;;;;;11.00;11.00;;;;;29.85;42.31;100707.06;5056264;28;46828;-69
2023/08/24 10:38:59;;;;;;;;;17.67;16.67;;;;;29.84;42.66;100697.19;5055573;28;45783;-72
2023/08/24 10:41:27;;;;;;;;;11.00;10.33;;;;;30.17;42.44;100744.38;5072459;27;45492;-69
2023/08/24 10:44:05;;;;;;;;;11.33;10.33;;;;;30.25;42.42;100752.91;5056424;28;45617;-71
2023/08/24 10:46:34;;;;;;;;;17.00;16.33;;;;;30.28;42.42;100765.22;5057129;28;46255;-69
2023/08/24 10:49:00;;;;;;;;;11.67;10.33;;;;;30.39;41.82;100794.28;5057547;28;45432;-69
2023/08/24 10:51:30;;;;;;;;;13.00;13.00;;;;;30.42;42.60;100801.97;5058862;27;45327;-68
2023/08/24 10:54:05;;;;;;;;;12.00;11.67;;;;;30.39;42.31;100818.16;5071225;28;45518;-78
2023/08/24 10:56:40;;;;;;;;;8.67;8.67;;;;;30.31;42.17;100810.50;5067970;28;45954;-72
2023/08/24 10:59:19;;;;;;;;;9.00;9.00;;;;;30.14;42.32;100792.38;5045590;28;45415;-70
2023/08/24 11:01:55;;;;;;;;;13.00;11.67;;;;;30.12;42.43;100802.78;5055891;28;45505;-69
2023/08/24 11:04:21;;;;;;;;;13.00;13.00;;;;;30.07;42.68;100805.53;5055657;28;45659;-71
2023/08/24 11:06:55;;;;;;;;;12.00;11.00;;;;;30.04;42.98;100810.75;5071646;27;45373;-70
2023/08/24 11:09:20;;;;;;;;;11.00;11.00;;;;;29.99;42.80;100808.75;5056684;28;45508;-70
2023/08/24 11:12:00;;;;;;;;;12.33;12.33;;;;;29.92;42.92;100800.81;5055110;28;45465;-69
2023/08/24 11:14:26;;;;;;;;;11.33;11.33;;;;;29.85;43.01;100805.72;5065883;28;45567;-70
2023/08/24 11:16:53;;;;;;;;;8.33;8.33;;;;;29.74;43.30;100803.22;5055548;28;46995;-70